createdAt,value
2022-09-03T00:01:14.686Z,100471.56
2022-09-03T00:03:48.136Z,100466.81
2022-09-03T00:06:17.673Z,100479.63
2022-09-03T00:09:13.222Z,100482.50
2022-09-03T00:11:58.580Z,100464.97
2022-09-03T00:14:39.603Z,100471.00
2022-09-03T00:17:18.701Z,100485.56
2022-09-03T00:19:58.990Z,100487.38
2022-09-03T00:22:52.053Z,100500.25
2022-09-03T00:25:27.019Z,100505.47
2022-09-03T00:28:01.304Z,100493.72
2022-09-03T00:30:33.255Z,100494.69
2022-09-03T00:33:14.971Z,100507.53
2022-09-03T00:36:03.655Z,100516.34
2022-09-03T00:38:31.785Z,100508.22
2022-09-03T00:41:01.485Z,100526.22
2022-09-03T00:43:41.379Z,100524.50
2022-09-03T00:46:27.471Z,100520.59
2022-09-03T00:49:09.956Z,100524.91
2022-09-03T00:52:00.610Z,100522.56
2022-09-03T00:54:47.918Z,100519.66
2022-09-03T00:57:51.268Z,100536.88
2022-09-03T01:00:20.505Z,100537.78
2022-09-03T01:03:11.251Z,100540.41
2022-09-03T01:06:20.362Z,100537.66
2022-09-03T01:09:16.959Z,100548.88
2022-09-03T01:11:57.251Z,100536.88
2022-09-03T01:14:33.489Z,100535.13
2022-09-03T01:17:13.178Z,100529.16
2022-09-03T01:19:58.515Z,100528.19
2022-09-03T01:22:58.094Z,100528.28
2022-09-03T01:25:49.744Z,100543.00
2022-09-03T01:28:31.852Z,100536.09
2022-09-03T01:31:27.320Z,100530.97
2022-09-03T01:34:04.806Z,100534.88
2022-09-03T01:36:51.389Z,100550.16
2022-09-03T01:39:35.969Z,100548.50
2022-09-03T01:42:20.400Z,100550.16
2022-09-03T01:45:14.028Z,100561.72
2022-09-03T01:48:06.577Z,100563.69
2022-09-03T01:51:00.388Z,100562.91
2022-09-03T01:53:39.937Z,100570.06
2022-09-03T01:56:33.652Z,100570.97
2022-09-03T01:59:23.874Z,100575.66
2022-09-03T02:01:55.209Z,100573.84
2022-09-03T02:04:27.576Z,100571.31
2022-09-03T02:07:00.627Z,100579.94
2022-09-03T02:09:32.781Z,100589.78
2022-09-03T02:12:14.835Z,100586.00
2022-09-03T02:14:43.009Z,100593.97
2022-09-03T02:17:13.592Z,100568.91
2022-09-03T02:19:41.682Z,100574.47
2022-09-03T02:22:09.146Z,100577.34
2022-09-03T02:24:38.705Z,100582.91
2022-09-03T02:27:06.147Z,100588.84
2022-09-03T02:29:33.874Z,100588.31
2022-09-03T02:32:02.059Z,100585.13
2022-09-03T02:34:30.050Z,100582.44
2022-09-03T02:36:57.266Z,100585.28
2022-09-03T02:39:24.701Z,100590.13
2022-09-03T02:41:57.578Z,100593.75
2022-09-03T02:44:31.825Z,100609.97
2022-09-03T02:47:02.803Z,100597.88
2022-09-03T02:49:31.089Z,100607.38
2022-09-03T02:52:06.752Z,100619.31
2022-09-03T02:54:40.128Z,100603.72
2022-09-03T02:57:09.408Z,100600.78
2022-09-03T02:59:36.870Z,100603.91
2022-09-03T03:02:04.650Z,100611.63
2022-09-03T03:04:33.579Z,100600.69
2022-09-03T03:07:00.909Z,100607.75
2022-09-03T03:09:29.143Z,100626.47
2022-09-03T03:11:56.308Z,100616.00
2022-09-03T03:14:24.137Z,100623.66
2022-09-03T03:16:52.411Z,100627.38
2022-09-03T03:19:19.875Z,100622.97
2022-09-03T03:21:47.544Z,100626.38
2022-09-03T03:24:15.032Z,100639.25
2022-09-03T03:26:42.326Z,100618.53
2022-09-03T03:29:17.470Z,100635.59
2022-09-03T03:31:44.942Z,100626.09
2022-09-03T03:34:12.330Z,100637.22
2022-09-03T03:36:39.718Z,100637.13
2022-09-03T03:39:07.151Z,100639.06
2022-09-03T03:41:38.746Z,100645.13
2022-09-03T03:44:07.690Z,100654.53
2022-09-03T03:46:40.065Z,100632.25
2022-09-03T03:49:08.628Z,100650.13
2022-09-03T03:51:37.372Z,100645.03
2022-09-03T03:54:05.796Z,100653.44
2022-09-03T03:56:34.299Z,100650.88
2022-09-03T03:59:01.491Z,100649.13
2022-09-03T04:01:29.903Z,100646.53
2022-09-03T04:04:00.238Z,100636.97
2022-09-03T04:06:28.423Z,100632.66
2022-09-03T04:08:56.020Z,100640.94
2022-09-03T04:11:24.425Z,100669.31
2022-09-03T04:13:52.882Z,100665.81
2022-09-03T04:16:25.473Z,100652.69
2022-09-03T04:18:54.935Z,100666.50
2022-09-03T04:21:24.551Z,100662.66
2022-09-03T04:23:53.880Z,100667.81
2022-09-03T04:26:24.443Z,100655.94
2022-09-03T04:28:51.728Z,100659.53
2022-09-03T04:31:21.427Z,100670.41
2022-09-03T04:33:49.238Z,100667.59
2022-09-03T04:36:21.061Z,100678.50
2022-09-03T04:38:50.521Z,100671.38
2022-09-03T04:41:20.816Z,100668.78
2022-09-03T04:43:51.813Z,100680.91
2022-09-03T04:46:20.916Z,100673.63
2022-09-03T04:48:53.190Z,100666.47
2022-09-03T04:51:23.362Z,100667.72
2022-09-03T04:53:57.153Z,100671.19
2022-09-03T04:56:28.591Z,100677.53
2022-09-03T04:58:58.005Z,100685.31
2022-09-03T05:01:28.222Z,100675.84
2022-09-03T05:03:57.203Z,100678.91
2022-09-03T05:06:26.262Z,100674.28
2022-09-03T05:08:55.686Z,100671.66
2022-09-03T05:11:24.434Z,100661.91
2022-09-03T05:13:54.407Z,100668.03
2022-09-03T05:16:22.836Z,100665.75
2022-09-03T05:18:54.238Z,100668.22
2022-09-03T05:21:22.604Z,100678.03
2022-09-03T05:23:51.094Z,100674.88
2022-09-03T05:26:21.113Z,100675.25
2022-09-03T05:28:48.928Z,100674.06
2022-09-03T05:31:18.426Z,100676.19
2022-09-03T05:33:48.081Z,100681.91
2022-09-03T05:36:17.965Z,100686.13
2022-09-03T05:38:45.966Z,100677.88
2022-09-03T05:41:14.817Z,100686.34
2022-09-03T05:43:43.384Z,100688.78
2022-09-03T05:46:16.942Z,100692.78
2022-09-03T05:48:44.658Z,100687.19
2022-09-03T05:51:16.926Z,100694.00
2022-09-03T05:53:46.109Z,100691.59
2022-09-03T05:56:19.890Z,100684.91
2022-09-03T05:58:50.706Z,100701.88
2022-09-03T06:01:22.095Z,100701.81
2022-09-03T06:04:00.583Z,100708.53
2022-09-03T06:06:30.035Z,100705.31
2022-09-03T06:09:02.775Z,100704.38
2022-09-03T06:11:31.603Z,100706.06
2022-09-03T06:14:01.617Z,100695.38
2022-09-03T06:16:32.152Z,100696.00
2022-09-03T06:19:00.998Z,100703.97
2022-09-03T06:21:29.045Z,100709.16
2022-09-03T06:23:59.437Z,100705.91
2022-09-03T06:26:28.940Z,100711.13
2022-09-03T06:28:57.794Z,100713.09
2022-09-03T06:31:26.209Z,100719.00
2022-09-03T06:33:54.846Z,100715.34
2022-09-03T06:36:24.390Z,100713.34
2022-09-03T06:38:56.599Z,100715.06
2022-09-03T06:41:26.811Z,100712.03
2022-09-03T06:44:04.802Z,100715.00
2022-09-03T06:46:35.442Z,100718.75
2022-09-03T06:49:03.109Z,100724.19
2022-09-03T06:51:32.160Z,100727.97
2022-09-03T06:54:05.895Z,100719.16
2022-09-03T06:56:39.608Z,100711.25
2022-09-03T06:59:13.118Z,100727.72
2022-09-03T07:01:44.136Z,100721.69
2022-09-03T07:04:16.861Z,100728.38
2022-09-03T07:06:46.663Z,100733.03
2022-09-03T07:09:15.803Z,100724.81
2022-09-03T07:11:48.032Z,100719.72
2022-09-03T07:14:17.739Z,100721.81
2022-09-03T07:16:47.267Z,100728.41
2022-09-03T07:19:14.803Z,100740.25
2022-09-03T07:21:46.775Z,100734.28
2022-09-03T07:24:17.313Z,100730.69
2022-09-03T07:26:47.445Z,100733.25
2022-09-03T07:29:16.271Z,100729.47
2022-09-03T07:31:44.350Z,100735.50
2022-09-03T07:34:16.614Z,100723.34
2022-09-03T07:36:48.643Z,100731.56
2022-09-03T07:39:18.136Z,100736.31
2022-09-03T07:41:47.055Z,100741.34
2022-09-03T07:44:19.705Z,100741.31
2022-09-03T07:46:49.432Z,100736.81
2022-09-03T07:49:17.443Z,100730.84
2022-09-03T07:51:46.707Z,100736.72
2022-09-03T07:54:13.718Z,100725.84
2022-09-03T07:56:41.307Z,100721.06
2022-09-03T07:59:09.759Z,100722.78
2022-09-03T08:01:38.416Z,100715.31
2022-09-03T08:04:09.399Z,100711.78
2022-09-03T08:06:39.237Z,100712.13
2022-09-03T08:09:10.471Z,100708.03
2022-09-03T08:11:39.821Z,100719.56
2022-09-03T08:14:10.219Z,100709.97
2022-09-03T08:16:44.446Z,100722.66
2022-09-03T08:19:13.560Z,100729.97
2022-09-03T08:21:44.573Z,100724.22
2022-09-03T08:24:12.722Z,100707.59
2022-09-03T08:26:46.218Z,100705.91
2022-09-03T08:29:15.147Z,100709.75
2022-09-03T08:31:43.181Z,100729.41
2022-09-03T08:34:11.973Z,100704.94
2022-09-03T08:36:41.594Z,100712.84
2022-09-03T08:39:10.765Z,100706.00
2022-09-03T08:42:13.402Z,100715.69
2022-09-03T08:44:48.963Z,100725.19
2022-09-03T08:47:41.598Z,100718.72
2022-09-03T08:50:18.366Z,100702.84
2022-09-03T08:52:50.496Z,100720.56
2022-09-03T08:55:42.748Z,100711.09
2022-09-03T08:58:14.514Z,100697.06
2022-09-03T09:01:03.263Z,100697.47
2022-09-03T09:04:07.584Z,100707.72
2022-09-03T09:06:46.738Z,100703.50
2022-09-03T09:09:32.187Z,100712.13
2022-09-03T09:12:41.451Z,100709.84
2022-09-03T09:15:36.654Z,100705.84
2022-09-03T09:18:45.224Z,100698.06
2022-09-03T09:21:23.379Z,100698.59
2022-09-03T09:23:54.263Z,100692.22
2022-09-03T09:26:22.696Z,100689.28
2022-09-03T09:29:06.142Z,100680.59
2022-09-03T09:31:39.400Z,100677.88
2022-09-03T09:34:08.815Z,100680.38
2022-09-03T09:36:44.714Z,100675.22
2022-09-03T09:39:12.596Z,100687.31
2022-09-03T09:41:39.829Z,100676.56
2022-09-03T09:44:06.937Z,100678.72
2022-09-03T09:46:41.276Z,100687.25
2022-09-03T09:49:29.196Z,100689.59
2022-09-03T09:52:09.807Z,100677.06
2022-09-03T09:54:37.214Z,100692.63
2022-09-03T09:57:08.113Z,100686.66
2022-09-03T09:59:38.266Z,100696.41
2022-09-03T10:02:13.719Z,100688.50
2022-09-03T10:04:50.181Z,100689.72
2022-09-03T10:07:33.052Z,100690.44
2022-09-03T10:10:05.840Z,100695.25
2022-09-03T10:12:43.613Z,100686.84
2022-09-03T10:15:24.712Z,100688.56
2022-09-03T10:18:02.404Z,100686.50
2022-09-03T10:20:42.282Z,100693.03
2022-09-03T10:23:25.891Z,100686.59
2022-09-03T10:26:10.277Z,100685.22
2022-09-03T10:28:43.507Z,100693.81
2022-09-03T10:31:19.397Z,100693.94
2022-09-03T10:33:52.860Z,100694.34
2022-09-03T10:36:28.594Z,100701.06
2022-09-03T10:39:23.141Z,100681.63
2022-09-03T10:42:31.813Z,100697.75
2022-09-03T10:45:11.085Z,100700.63
2022-09-03T10:48:00.345Z,100700.41
2022-09-03T10:50:32.183Z,100702.09
2022-09-03T10:53:05.504Z,100710.41
2022-09-03T10:56:15.421Z,100707.75
2022-09-03T10:59:19.964Z,100717.56
2022-09-03T11:02:37.745Z,100719.38
2022-09-03T11:05:21.891Z,100714.09
2022-09-03T11:08:07.051Z,100710.28
2022-09-03T11:10:41.290Z,100720.97
2022-09-03T11:13:09.237Z,100707.75
2022-09-03T11:15:48.657Z,100700.53
2022-09-03T11:18:34.001Z,100693.03
2022-09-03T11:21:08.837Z,100687.22
2022-09-03T11:23:42.750Z,100669.06
2022-09-03T11:26:15.670Z,100672.03
2022-09-03T11:29:13.605Z,100676.97
2022-09-03T11:31:58.511Z,100680.63
2022-09-03T11:34:33.276Z,100676.44
2022-09-03T11:37:18.093Z,100681.34
2022-09-03T11:39:53.761Z,100678.78
2022-09-03T11:42:50.245Z,100676.91
2022-09-03T11:45:34.811Z,100675.09
2022-09-03T11:48:02.384Z,100672.63
2022-09-03T11:50:33.298Z,100659.44
2022-09-03T11:53:16.620Z,100664.53
2022-09-03T11:56:07.058Z,100654.91
2022-09-03T11:58:37.239Z,100647.38
2022-09-03T12:01:18.949Z,100655.31
2022-09-03T12:03:57.549Z,100642.34
2022-09-03T12:06:27.548Z,100643.44
2022-09-03T12:09:32.334Z,100647.47
2022-09-03T12:12:24.164Z,100633.31
2022-09-03T12:15:03.685Z,100627.28
2022-09-03T12:17:36.725Z,100619.78
2022-09-03T12:20:13.274Z,100614.84
2022-09-03T12:22:41.015Z,100619.94
2022-09-03T12:25:15.988Z,100624.63
2022-09-03T12:27:45.817Z,100617.09
2022-09-03T12:30:19.359Z,100609.78
2022-09-03T12:32:48.333Z,100609.69
2022-09-03T12:38:09.384Z,100612.47
2022-09-03T12:43:38.791Z,100608.31
2022-09-03T12:46:15.188Z,100612.09
2022-09-03T12:51:55.584Z,100619.03
2022-09-03T12:54:25.668Z,100625.13
2022-09-03T12:56:59.949Z,100634.44
2022-09-03T12:59:32.194Z,100625.78
2022-09-03T13:02:06.862Z,100619.53
2022-09-03T13:04:37.059Z,100616.75
2022-09-03T13:07:14.821Z,100608.44
2022-09-03T13:09:42.683Z,100603.13
2022-09-03T13:12:29.206Z,100601.97
2022-09-03T13:14:57.996Z,100602.66
2022-09-03T13:17:41.052Z,100596.66
2022-09-03T13:20:35.909Z,100611.03
2022-09-03T13:23:25.021Z,100602.31
2022-09-03T13:26:14.843Z,100595.03
2022-09-03T13:29:28.952Z,100593.66
2022-09-03T13:32:06.284Z,100589.06
2022-09-03T13:34:43.274Z,100587.09
2022-09-03T13:37:25.456Z,100588.19
2022-09-03T13:40:04.071Z,100589.50
2022-09-03T13:42:31.441Z,100578.38
2022-09-03T13:45:28.593Z,100587.44
2022-09-03T13:48:48.310Z,100596.09
2022-09-03T13:51:26.156Z,100584.16
2022-09-03T13:54:02.438Z,100584.28
2022-09-03T13:56:52.326Z,100578.84
2022-09-03T13:59:40.331Z,100572.31
2022-09-03T14:02:19.455Z,100566.28
2022-09-03T14:05:03.000Z,100567.88
2022-09-03T14:07:57.998Z,100560.25
2022-09-03T14:10:38.019Z,100562.13
2022-09-03T14:13:22.727Z,100567.06
2022-09-03T14:16:07.062Z,100562.44
2022-09-03T14:18:59.544Z,100560.09
2022-09-03T14:21:33.937Z,100555.00
2022-09-03T14:24:16.814Z,100553.03
2022-09-03T14:27:00.329Z,100548.00
2022-09-03T14:29:33.182Z,100551.53
2022-09-03T14:32:29.745Z,100555.91
2022-09-03T14:35:23.244Z,100551.50
2022-09-03T14:38:15.143Z,100550.09
2022-09-03T14:41:06.830Z,100549.31
2022-09-03T14:43:52.384Z,100553.69
2022-09-03T14:46:50.567Z,100551.09
2022-09-03T14:49:55.126Z,100547.41
2022-09-03T14:52:50.359Z,100540.84
2022-09-03T14:55:54.696Z,100544.16
2022-09-03T14:58:31.008Z,100541.13
2022-09-03T15:01:24.358Z,100538.38
2022-09-03T15:04:23.856Z,100539.84
2022-09-03T15:07:09.788Z,100536.81
2022-09-03T15:09:52.931Z,100540.19
2022-09-03T15:12:25.646Z,100528.75
2022-09-03T15:14:57.885Z,100531.31
2022-09-03T15:17:46.697Z,100545.28
2022-09-03T15:20:31.421Z,100535.84
2022-09-03T15:23:13.422Z,100532.59
2022-09-03T15:25:55.918Z,100519.16
2022-09-03T15:28:50.681Z,100529.75
2022-09-03T15:31:49.981Z,100516.19
2022-09-03T15:34:48.531Z,100524.75
2022-09-03T15:37:25.780Z,100516.91
2022-09-03T15:40:08.447Z,100512.16
2022-09-03T15:42:36.874Z,100502.69
2022-09-03T15:45:19.590Z,100520.66
2022-09-03T15:47:50.710Z,100527.75
2022-09-03T15:50:40.317Z,100515.56
2022-09-03T15:53:19.505Z,100537.69
2022-09-03T15:55:47.951Z,100532.72
2022-09-03T15:58:36.104Z,100534.69
2022-09-03T16:01:19.691Z,100543.44
2022-09-03T16:04:03.430Z,100538.94
2022-09-03T16:06:43.231Z,100529.53
2022-09-03T16:09:31.173Z,100540.41
2022-09-03T16:12:20.713Z,100539.75
2022-09-03T16:15:07.316Z,100538.44
2022-09-03T16:17:39.407Z,100536.56
2022-09-03T16:20:27.580Z,100538.66
2022-09-03T16:23:06.226Z,100541.38
2022-09-03T16:25:50.286Z,100543.38
2022-09-03T16:28:42.535Z,100541.88
2022-09-03T16:31:27.798Z,100543.66
2022-09-03T16:34:30.984Z,100552.06
2022-09-03T16:37:13.588Z,100548.59
2022-09-03T16:40:02.423Z,100551.63
2022-09-03T16:42:47.746Z,100555.28
2022-09-03T16:45:32.220Z,100552.94
2022-09-03T16:48:26.573Z,100555.59
2022-09-03T16:51:16.173Z,100560.31
2022-09-03T16:54:12.820Z,100558.47
2022-09-03T16:56:51.166Z,100558.31
2022-09-03T16:59:42.548Z,100560.75
2022-09-03T17:02:29.959Z,100563.50
2022-09-03T17:05:18.343Z,100563.03
2022-09-03T17:07:48.361Z,100561.03
2022-09-03T17:10:38.915Z,100563.09
2022-09-03T17:13:37.009Z,100560.19
2022-09-03T17:16:04.662Z,100568.41
2022-09-03T17:18:50.267Z,100557.34
2022-09-03T17:21:37.901Z,100561.88
2022-09-03T17:24:16.423Z,100567.47
2022-09-03T17:27:23.553Z,100551.34
2022-09-03T17:29:56.349Z,100573.19
2022-09-03T17:33:03.988Z,100579.91
2022-09-03T17:35:49.610Z,100583.75
2022-09-03T17:39:04.685Z,100571.13
2022-09-03T17:41:34.829Z,100577.06
2022-09-03T17:44:18.800Z,100567.53
2022-09-03T17:47:24.266Z,100567.44
2022-09-03T17:50:06.859Z,100569.63
2022-09-03T17:53:03.118Z,100569.63
2022-09-03T17:55:45.073Z,100572.56
2022-09-03T17:58:25.649Z,100567.09
2022-09-03T18:00:57.767Z,100567.91
2022-09-03T18:03:35.933Z,100559.81
2022-09-03T18:06:46.001Z,100566.59
2022-09-03T18:09:34.590Z,100570.09
2022-09-03T18:12:21.564Z,100567.56
2022-09-03T18:15:19.652Z,100568.66
2022-09-03T18:17:51.280Z,100566.97
2022-09-03T18:20:39.963Z,100556.63
2022-09-03T18:23:37.721Z,100565.47
2022-09-03T18:26:29.895Z,100574.53
2022-09-03T18:29:24.193Z,100560.66
2022-09-03T18:32:10.218Z,100571.09
2022-09-03T18:34:57.545Z,100571.66
2022-09-03T18:37:45.560Z,100574.59
2022-09-03T18:40:46.527Z,100571.28
2022-09-03T18:43:42.854Z,100558.56
2022-09-03T18:50:07.699Z,100559.19
2022-09-03T18:53:21.220Z,100560.22
2022-09-03T18:56:35.541Z,100560.38
2022-09-03T18:59:39.791Z,100563.13
2022-09-03T19:02:46.883Z,100558.94
2022-09-03T19:05:48.155Z,100554.59
2022-09-03T19:08:55.015Z,100532.66
2022-09-03T19:11:51.202Z,100540.84
2022-09-03T19:14:56.718Z,100529.16
2022-09-03T19:18:13.570Z,100526.13
2022-09-03T19:21:14.722Z,100518.31
2022-09-03T19:24:00.495Z,100522.72
2022-09-03T19:27:23.651Z,100524.22
2022-09-03T19:30:42.982Z,100513.53
2022-09-03T19:34:03.580Z,100536.59
2022-09-03T19:37:16.029Z,100532.88
2022-09-03T19:40:20.224Z,100530.19
2022-09-03T19:43:13.635Z,100526.28
2022-09-03T19:45:59.617Z,100524.34
2022-09-03T19:49:26.940Z,100532.88
2022-09-03T19:52:30.066Z,100525.78
2022-09-03T19:55:18.047Z,100521.41
2022-09-03T19:58:20.587Z,100533.56
2022-09-03T20:01:15.974Z,100523.38
2022-09-03T20:04:01.992Z,100527.44
2022-09-03T20:06:53.069Z,100526.41
2022-09-03T20:09:43.494Z,100532.38
2022-09-03T20:12:16.763Z,100542.91
2022-09-03T20:14:44.242Z,100540.28
2022-09-03T20:17:20.899Z,100544.34
2022-09-03T20:20:06.884Z,100536.25
2022-09-03T20:22:49.366Z,100537.94
2022-09-03T20:25:45.962Z,100537.88
2022-09-03T20:29:07.296Z,100526.06
2022-09-03T20:32:04.969Z,100537.09
2022-09-03T20:34:42.914Z,100538.03
2022-09-03T20:37:32.169Z,100543.38
2022-09-03T20:40:06.771Z,100542.56
2022-09-03T20:42:49.337Z,100545.94
2022-09-03T20:45:44.405Z,100539.72
2022-09-03T20:48:11.598Z,100539.56
2022-09-03T20:50:56.682Z,100535.22
2022-09-03T20:53:45.995Z,100544.25
2022-09-03T20:56:28.759Z,100534.66
2022-09-03T20:59:34.098Z,100538.97
2022-09-03T21:02:26.151Z,100537.47
2022-09-03T21:05:25.957Z,100531.34
2022-09-03T21:08:24.000Z,100530.66
2022-09-03T21:10:58.645Z,100531.78
2022-09-03T21:13:38.695Z,100539.88
2022-09-03T21:16:21.000Z,100534.94
2022-09-03T21:19:43.341Z,100533.25
2022-09-03T21:22:29.711Z,100538.72
2022-09-03T21:25:26.421Z,100538.41
2022-09-03T21:28:29.545Z,100538.41
2022-09-03T21:31:05.074Z,100541.94
2022-09-03T21:33:38.273Z,100524.81
2022-09-03T21:36:17.704Z,100545.63
2022-09-03T21:38:59.719Z,100551.75
2022-09-03T21:41:37.011Z,100545.88
2022-09-03T21:44:15.653Z,100542.94
2022-09-03T21:47:12.952Z,100555.91
2022-09-03T21:50:17.582Z,100554.38
2022-09-03T21:52:55.928Z,100558.13
2022-09-03T21:55:44.816Z,100558.31
2022-09-03T21:58:14.575Z,100553.38
2022-09-03T22:00:41.825Z,100532.91
2022-09-03T22:03:10.798Z,100544.13
2022-09-03T22:05:58.310Z,100543.69
2022-09-03T22:08:49.412Z,100549.97
2022-09-03T22:12:00.233Z,100545.63
2022-09-03T22:14:36.602Z,100556.00
2022-09-03T22:17:15.534Z,100556.59
2022-09-03T22:19:43.249Z,100559.22
2022-09-03T22:22:41.151Z,100558.13
2022-09-03T22:25:15.171Z,100529.25
2022-09-03T22:27:59.352Z,100564.59
2022-09-03T22:30:34.956Z,100552.53
2022-09-03T22:33:36.094Z,100554.22
2022-09-03T22:36:47.428Z,100562.88
2022-09-03T22:39:20.903Z,100568.66
2022-09-03T22:42:23.764Z,100562.88
2022-09-03T22:45:16.816Z,100559.84
2022-09-03T22:48:01.934Z,100560.94
2022-09-03T22:50:59.915Z,100564.56
2022-09-03T22:53:47.550Z,100568.00
2022-09-03T22:56:22.423Z,100561.91
2022-09-03T22:59:24.842Z,100563.63
2022-09-03T23:02:10.931Z,100558.16
2022-09-03T23:04:56.149Z,100562.00
2022-09-03T23:07:27.977Z,100558.09
2022-09-03T23:10:05.425Z,100559.16
2022-09-03T23:12:35.529Z,100560.50
2022-09-03T23:15:06.997Z,100550.31
2022-09-03T23:17:40.788Z,100556.66
2022-09-03T23:20:21.406Z,100554.31
2022-09-03T23:23:16.345Z,100552.00
2022-09-03T23:25:49.802Z,100565.50
2022-09-03T23:28:32.832Z,100559.78
2022-09-03T23:31:20.221Z,100565.22
2022-09-03T23:33:50.365Z,100549.13
2022-09-03T23:37:01.556Z,100572.28
2022-09-03T23:39:59.507Z,100570.28
2022-09-03T23:42:55.001Z,100576.38
2022-09-03T23:45:34.203Z,100580.78
2022-09-03T23:48:07.453Z,100570.56
2022-09-03T23:50:48.538Z,100571.41
2022-09-03T23:53:25.162Z,100580.28
2022-09-03T23:56:01.486Z,100575.28
2022-09-03T23:58:40.206Z,100568.75
